createdAt,value
2019-01-17T06:29:01.469Z,0.1
2019-01-17T06:30:01.097Z,0.1
2019-01-17T06:31:01.095Z,0.2
2019-01-17T06:32:01.097Z,0.3
2019-01-17T06:34:01.244Z,0.4
2019-01-17T06:35:01.101Z,0.5
2019-01-17T06:36:01.102Z,0.6
2019-01-17T06:37:01.098Z,0.7
2019-01-17T06:38:01.113Z,0.9
2019-01-17T06:39:01.307Z,1.1
2019-01-17T06:40:01.104Z,1.3
2019-01-17T06:41:01.098Z,1.5
2019-01-17T06:42:01.100Z,1.7
2019-01-17T06:43:01.096Z,2.0
2019-01-17T06:44:01.273Z,2.3
2019-01-17T06:45:01.067Z,2.6
2019-01-17T06:46:01.107Z,3.0
2019-01-17T06:47:01.104Z,3.5
2019-01-17T06:49:01.271Z,4.2
2019-01-17T06:50:01.089Z,5.1
2019-01-17T06:51:01.099Z,6.1
2019-01-17T06:52:01.058Z,7.0
2019-01-17T06:53:01.089Z,8.1
2019-01-17T06:54:01.262Z,9.2
2019-01-17T06:55:01.092Z,10.3
2019-01-17T06:56:01.098Z,11.5
2019-01-17T06:57:01.099Z,13.2
2019-01-17T06:58:01.088Z,15.1
2019-01-17T06:59:01.275Z,17.6
2019-01-17T07:00:01.110Z,20.5
2019-01-17T07:01:01.093Z,24.0
2019-01-17T07:02:01.099Z,28.3
2019-01-17T07:03:01.101Z,33.3
2019-01-17T07:04:01.333Z,39.1
2019-01-17T07:05:01.128Z,45.2
2019-01-17T07:06:01.097Z,51.7
2019-01-17T07:07:01.094Z,59.2
2019-01-17T07:08:01.100Z,67.7
2019-01-17T07:09:01.336Z,77.4
2019-01-17T07:10:01.150Z,88.0
2019-01-17T07:11:01.098Z,99.3
2019-01-17T07:12:01.096Z,111.1
2019-01-17T07:13:01.102Z,122.9
2019-01-17T07:14:01.241Z,133.2
2019-01-17T07:15:06.138Z,141.7
2019-01-17T07:16:01.104Z,151.5
2019-01-17T07:17:01.103Z,165.4
2019-01-17T07:18:01.100Z,190.5
2019-01-17T07:19:01.275Z,226.2
2019-01-17T07:20:01.108Z,261.3
2019-01-17T07:21:01.130Z,287.0
2019-01-17T07:22:01.099Z,305.5
2019-01-17T07:23:01.099Z,320.5
2019-01-17T07:24:01.239Z,334.7
2019-01-17T07:25:01.101Z,355.7
2019-01-17T07:26:01.133Z,383.8
2019-01-17T07:28:01.086Z,408.1
2019-01-17T07:29:01.232Z,420.1
2019-01-17T07:30:01.089Z,432.0
2019-01-17T07:31:01.122Z,443.5
2019-01-17T07:32:01.084Z,453.4
2019-01-17T07:33:01.089Z,457.3
2019-01-17T07:34:01.292Z,448.9
2019-01-17T07:35:01.085Z,432.9
2019-01-17T07:36:01.086Z,420.3
2019-01-17T07:37:01.086Z,426.4
2019-01-17T07:38:01.089Z,462.7
2019-01-17T07:39:01.231Z,517.5
2019-01-17T07:40:02.135Z,602.2
2019-01-17T07:41:01.087Z,736.6
2019-01-17T07:42:01.087Z,886.9
2019-01-17T07:43:01.092Z,1041.8
2019-01-17T07:44:01.235Z,1213.3
2019-01-17T07:45:01.093Z,1352.4
2019-01-17T07:46:01.089Z,1511.1
2019-01-17T07:47:01.089Z,1720.9
2019-01-17T07:48:01.090Z,1976.3
2019-01-17T07:49:01.242Z,2238.5
2019-01-17T07:50:01.104Z,2493.5
2019-01-17T07:51:01.131Z,2749.4
2019-01-17T07:52:01.097Z,2900.3
2019-01-17T07:53:01.096Z,2972.8
2019-01-17T07:54:01.238Z,3056.7
2019-01-17T07:55:01.847Z,3105.4
2019-01-17T07:56:06.097Z,3085.9
2019-01-17T07:57:01.099Z,3062.9
2019-01-17T07:58:01.095Z,3079.1
2019-01-17T07:59:01.246Z,3164.0
2019-01-17T08:00:01.106Z,3286.4
2019-01-17T08:01:01.096Z,3435.4
2019-01-17T08:02:01.131Z,3532.0
2019-01-17T08:03:01.100Z,3615.5
2019-01-17T08:04:01.244Z,3718.3
2019-01-17T08:05:01.096Z,3834.5
2019-01-17T08:06:01.095Z,3950.9
2019-01-17T08:07:01.128Z,4325.3
2019-01-17T08:08:01.093Z,4885.9
2019-01-17T08:09:01.242Z,5531.3
2019-01-17T08:10:01.136Z,6345.4
2019-01-17T08:11:01.094Z,7222.2
2019-01-17T08:12:04.984Z,8362.7
2019-01-17T08:13:01.102Z,9389.1
2019-01-17T08:14:01.240Z,10358.0
2019-01-17T08:15:01.099Z,11168.3
2019-01-17T08:16:01.095Z,11656.1
2019-01-17T08:17:01.132Z,11879.5
2019-01-17T08:18:01.099Z,12035.4
2019-01-17T08:19:01.263Z,12039.6
2019-01-17T08:20:01.098Z,12117.9
2019-01-17T08:21:01.095Z,12155.1
2019-01-17T08:22:02.096Z,12152.5
2019-01-17T08:23:01.099Z,12434.4
2019-01-17T08:24:01.310Z,12898.8
2019-01-17T08:25:01.099Z,12868.0
2019-01-17T08:26:01.195Z,12397.4
2019-01-17T08:27:01.100Z,12060.6
2019-01-17T08:28:01.131Z,12066.9
2019-01-17T08:29:01.243Z,12055.0
2019-01-17T08:30:01.101Z,12291.4
2019-01-17T08:31:01.211Z,12807.3
2019-01-17T08:33:01.121Z,13692.9
2019-01-17T08:34:01.239Z,14742.7
2019-01-17T08:35:01.088Z,15998.6
2019-01-17T08:36:01.088Z,17268.2
2019-01-17T08:37:01.086Z,18281.9
2019-01-17T08:38:06.099Z,18965.0
2019-01-17T08:39:01.364Z,19177.5
2019-01-17T08:40:01.090Z,19265.5
2019-01-17T08:41:03.192Z,19917.1
2019-01-17T08:42:01.084Z,20735.5
2019-01-17T08:43:01.086Z,21049.5
2019-01-17T08:44:01.264Z,21011.3
2019-01-17T08:45:01.086Z,21187.9
2019-01-17T08:46:01.085Z,21501.3
2019-01-17T08:47:01.087Z,21761.7
2019-01-17T08:48:01.089Z,21904.2
2019-01-17T08:49:01.236Z,22373.5
2019-01-17T08:50:01.112Z,22916.5
2019-01-17T08:51:01.086Z,23774.8
2019-01-17T08:52:01.085Z,25874.5
2019-01-17T08:53:01.086Z,28238.6
2019-01-17T08:54:01.233Z,31189.3
2019-01-17T08:55:01.124Z,34197.1
2019-01-17T08:56:01.119Z,36859.1
2019-01-17T08:57:01.089Z,39215.1
2019-01-17T08:58:01.089Z,41875.9
2019-01-17T08:59:01.296Z,44811.2
2019-01-17T09:00:01.089Z,47764.5
2019-01-17T09:01:01.132Z,50486.8
2019-01-17T09:02:01.089Z,53260.8
2019-01-17T09:03:01.088Z,56048.3
2019-01-17T09:04:01.237Z,58380.9
2019-01-17T09:05:01.093Z,60559.5
2019-01-17T09:06:01.092Z,62324.8
2019-01-17T09:07:01.768Z,63141.3
2019-01-17T09:08:01.099Z,63901.1
2019-01-17T09:09:01.267Z,63896.5
2019-01-17T09:10:01.118Z,63268.5
2019-01-17T09:11:01.096Z,62636.1
2019-01-17T09:12:01.096Z,62650.1
2019-01-17T09:13:01.093Z,62347.5
2019-01-17T09:14:01.246Z,61458.7
2019-01-17T09:15:01.114Z,60045.8
2019-01-17T09:16:01.096Z,58335.9
2019-01-17T09:17:01.099Z,56348.3
2019-01-17T09:18:01.097Z,53944.7
2019-01-17T09:19:01.269Z,50995.1
2019-01-17T09:20:06.111Z,47750.0
2019-01-17T09:21:01.097Z,44385.7
2019-01-17T09:22:01.095Z,40911.0
2019-01-17T09:23:01.100Z,37522.8
2019-01-17T09:24:01.250Z,34620.7
2019-01-17T09:25:01.126Z,32198.7
2019-01-17T09:26:07.309Z,30012.7
2019-01-17T09:27:01.100Z,27692.7
2019-01-17T09:28:01.100Z,25566.6
2019-01-17T09:29:01.307Z,23646.1
2019-01-17T09:30:01.102Z,21941.4
2019-01-17T09:31:01.130Z,20743.7
2019-01-17T09:32:01.099Z,20145.5
2019-01-17T09:33:01.103Z,19983.7
2019-01-17T09:34:01.277Z,19970.3
2019-01-17T09:35:01.138Z,19868.8
2019-01-17T09:36:01.104Z,19977.4
2019-01-17T09:37:01.106Z,20287.2
2019-01-17T09:39:01.231Z,20520.3
2019-01-17T09:40:01.159Z,20454.2
2019-01-17T09:41:01.087Z,20240.0
2019-01-17T09:42:01.086Z,19868.1
2019-01-17T09:43:01.088Z,19576.1
2019-01-17T09:44:01.236Z,19262.7
2019-01-17T09:45:01.092Z,19167.5
2019-01-17T09:46:01.090Z,19345.3
2019-01-17T09:47:01.089Z,19521.5
2019-01-17T09:48:02.050Z,19670.4
2019-01-17T09:49:01.230Z,19515.8
2019-01-17T09:50:01.095Z,19673.9
2019-01-17T09:51:01.098Z,20186.6
2019-01-17T09:52:01.090Z,20663.3
2019-01-17T09:53:01.092Z,21261.4
2019-01-17T09:54:01.263Z,21843.9
2019-01-17T09:55:01.096Z,22182.1
2019-01-17T09:56:01.096Z,22504.9
2019-01-17T09:57:01.095Z,22842.5
2019-01-17T09:58:01.090Z,23213.3
2019-01-17T09:59:01.239Z,23360.3
2019-01-17T10:00:01.092Z,23511.7
2019-01-17T10:01:01.136Z,23443.2
2019-01-17T10:02:01.097Z,23367.0
2019-01-17T10:03:01.092Z,23107.1
2019-01-17T10:04:01.239Z,23028.1
2019-01-17T10:05:01.147Z,23122.8
2019-01-17T10:06:01.095Z,24198.8
2019-01-17T10:07:01.380Z,26977.7
2019-01-17T10:08:01.095Z,29544.6
2019-01-17T10:09:01.240Z,31435.9
2019-01-17T10:10:01.103Z,33994.7
2019-01-17T10:11:01.095Z,36615.4
2019-01-17T10:12:01.099Z,38098.1
2019-01-17T10:13:06.120Z,38555.1
2019-01-17T10:14:01.243Z,38799.8
2019-01-17T10:15:01.099Z,38450.3
2019-01-17T10:16:01.096Z,37883.2
2019-01-17T10:17:01.102Z,36939.9
2019-01-17T10:18:01.124Z,35803.1
2019-01-17T10:19:01.485Z,34867.3
2019-01-17T10:20:01.097Z,33889.3
2019-01-17T10:21:01.100Z,32310.5
2019-01-17T10:22:01.113Z,29767.3
2019-01-17T10:23:01.124Z,27743.5
2019-01-17T10:24:01.255Z,27233.7
2019-01-17T10:25:01.103Z,26348.9
2019-01-17T10:26:01.100Z,24647.7
2019-01-17T10:27:01.099Z,23742.6
2019-01-17T10:28:01.128Z,24078.5
2019-01-17T10:29:01.245Z,24611.3
2019-01-17T10:30:01.104Z,25403.3
2019-01-17T10:31:01.114Z,26378.7
2019-01-17T10:32:01.107Z,27998.5
2019-01-17T10:34:01.241Z,29786.7
2019-01-17T10:35:01.096Z,31837.3
2019-01-17T10:36:01.097Z,33850.5
2019-01-17T10:37:01.093Z,35949.1
2019-01-17T10:38:01.122Z,37502.3
2019-01-17T10:39:01.239Z,38977.5
2019-01-17T10:40:06.106Z,40168.7
2019-01-17T10:41:01.103Z,41356.6
2019-01-17T10:42:01.100Z,42494.3
2019-01-17T10:43:01.097Z,43065.7
2019-01-17T10:44:01.246Z,43091.0
2019-01-17T10:45:01.141Z,43047.3
2019-01-17T10:46:01.101Z,42962.4
2019-01-17T10:47:01.102Z,42910.7
2019-01-17T10:48:01.100Z,42658.0
2019-01-17T10:49:01.247Z,42406.3
2019-01-17T10:50:01.136Z,41976.6
2019-01-17T10:51:01.100Z,41874.1
2019-01-17T10:52:01.102Z,42005.5
2019-01-17T10:53:01.100Z,42414.2
2019-01-17T10:54:01.242Z,42962.7
2019-01-17T10:57:01.104Z,43846.9
2019-01-17T10:59:01.234Z,45664.3
2019-01-17T11:00:01.096Z,47713.9
2019-01-17T11:01:01.095Z,49997.3
2019-01-17T11:02:01.101Z,52555.0
2019-01-17T11:03:01.086Z,55206.6
2019-01-17T11:04:01.428Z,57590.3
2019-01-17T11:05:01.089Z,59220.9
2019-01-17T11:06:01.090Z,60438.0
2019-01-17T11:07:01.088Z,61701.9
2019-01-17T11:08:01.090Z,62467.4
2019-01-17T11:09:01.237Z,63048.8
2019-01-17T11:15:01.238Z,63048.8
2019-01-17T11:17:01.136Z,63116.8
2019-01-17T11:20:01.263Z,63783.7
2019-01-17T11:21:01.093Z,64680.4
2019-01-17T11:22:01.091Z,65193.6
2019-01-17T11:23:01.093Z,65022.3
2019-01-17T11:24:01.092Z,64343.3
2019-01-17T11:25:02.275Z,63032.1
2019-01-17T11:26:01.100Z,61145.9
2019-01-17T11:27:01.096Z,59097.3
2019-01-17T11:28:01.132Z,56811.0
2019-01-17T11:29:01.099Z,54650.8
2019-01-17T11:30:01.246Z,52832.1
2019-01-17T11:31:01.096Z,51326.8
2019-01-17T11:32:01.099Z,50148.1
2019-01-17T11:33:01.124Z,49417.1
2019-01-17T11:34:01.100Z,48986.3
2019-01-17T11:38:01.258Z,49499.1
2019-01-17T11:39:01.103Z,50178.1
2019-01-17T11:40:06.106Z,51489.2
2019-01-17T11:41:01.103Z,53375.4
2019-01-17T11:42:01.105Z,55424.1
2019-01-17T11:43:02.592Z,57710.3
2019-01-17T11:44:01.097Z,59870.5
2019-01-17T11:45:01.100Z,61689.3
2019-01-17T11:46:01.103Z,63194.5
2019-01-17T11:47:01.097Z,64373.2
2019-01-17T11:48:01.242Z,65104.3
2019-01-17T11:49:01.098Z,65535.0
2019-01-17T11:53:01.372Z,65234.2
2019-01-17T11:54:01.099Z,64606.1
2019-01-17T11:55:01.126Z,63423.3
2019-01-17T11:56:01.104Z,62290.4
2019-01-17T11:57:01.100Z,61399.1
2019-01-17T11:58:01.247Z,59779.1
2019-01-17T11:59:01.128Z,57795.9
2019-01-17T12:00:01.117Z,55950.4
2019-01-17T12:01:01.108Z,54074.2
2019-01-17T12:02:01.109Z,51732.6
2019-01-17T12:03:01.273Z,49366.1
2019-01-17T12:04:01.131Z,46552.8
2019-01-17T12:05:01.102Z,43733.5
2019-01-17T12:06:01.110Z,40718.7
2019-01-17T12:08:01.284Z,37642.7
2019-01-17T12:09:06.100Z,35548.5
2019-01-17T12:10:01.100Z,34696.4
2019-01-17T12:11:01.100Z,34495.1
2019-01-17T12:12:01.100Z,34671.3
2019-01-17T12:13:01.246Z,35123.5
2019-01-17T12:14:06.106Z,36378.1
2019-01-17T12:15:01.103Z,36866.9
2019-01-17T12:16:01.099Z,36837.5
2019-01-17T12:17:01.102Z,36885.5
2019-01-17T12:18:01.241Z,37589.9
2019-01-17T12:19:06.107Z,38462.9
2019-01-17T12:20:01.102Z,40301.3
2019-01-17T12:21:01.098Z,42548.7
2019-01-17T12:22:01.100Z,44201.1
2019-01-17T12:23:01.268Z,46041.7
2019-01-17T12:24:06.110Z,47234.4
2019-01-17T12:25:01.132Z,47308.3
2019-01-17T12:26:01.101Z,47398.5
2019-01-17T12:27:01.099Z,47385.2
2019-01-17T12:28:01.271Z,47089.5
2019-01-17T12:29:01.104Z,46609.5
2019-01-17T12:30:01.108Z,47125.8
2019-01-17T12:31:02.002Z,48405.6
2019-01-17T12:32:01.104Z,50097.5
2019-01-17T12:33:01.249Z,51734.6
2019-01-17T12:34:01.099Z,53228.1
2019-01-17T12:35:01.104Z,54203.0
2019-01-17T12:36:01.102Z,54774.9
2019-01-17T12:37:01.100Z,56137.3
2019-01-17T12:38:01.307Z,57372.7
2019-01-17T12:39:01.107Z,58575.0
2019-01-17T12:40:01.106Z,59615.0
2019-01-17T12:41:01.105Z,60431.9
2019-01-17T12:42:01.114Z,61301.5
2019-01-17T12:43:01.256Z,62036.3
2019-01-17T12:44:01.107Z,62881.7
2019-01-17T12:46:01.097Z,63859.8
2019-01-17T12:47:01.086Z,64454.9
2019-01-17T12:48:01.238Z,64591.3
2019-01-17T12:50:01.089Z,64300.5
2019-01-17T12:51:01.090Z,64289.1
2019-01-17T12:52:01.089Z,63692.9
2019-01-17T12:53:01.264Z,63110.7
2019-01-17T12:54:01.100Z,62555.4
2019-01-17T12:55:01.101Z,62105.3
2019-01-17T12:56:01.100Z,62471.7
2019-01-17T12:57:01.138Z,62948.7
2019-01-17T12:58:01.247Z,63049.1
2019-01-17T13:00:07.542Z,63049.1
2019-01-17T13:05:01.104Z,62862.9
2019-01-17T13:06:01.104Z,61528.5
2019-01-17T13:07:06.109Z,60619.4
2019-01-17T13:08:01.359Z,59864.4
2019-01-17T13:09:01.103Z,59195.7
2019-01-17T13:10:01.103Z,58624.3
2019-01-17T13:11:01.106Z,57402.6
2019-01-17T13:12:01.142Z,55788.9
2019-01-17T13:14:01.087Z,54223.3
2019-01-17T13:15:01.094Z,52570.9
2019-01-17T13:16:01.088Z,50813.6
2019-01-17T13:17:01.088Z,49167.1
2019-01-17T13:18:01.262Z,47934.2
2019-01-17T13:19:01.089Z,47140.7
2019-01-17T13:20:01.091Z,46514.0
2019-01-17T13:21:01.088Z,46033.2
2019-01-17T13:22:01.092Z,46193.8
2019-01-17T13:23:01.277Z,46363.4
2019-01-17T13:24:01.094Z,46375.3
2019-01-17T13:25:01.090Z,46095.9
2019-01-17T13:26:01.098Z,45507.5
2019-01-17T13:27:01.167Z,45009.4
2019-01-17T13:28:01.266Z,44677.7
2019-01-17T13:29:01.090Z,44012.4
2019-01-17T13:30:01.098Z,43168.5
2019-01-17T13:31:01.091Z,42346.1
2019-01-17T13:32:01.092Z,41326.1
2019-01-17T13:33:01.277Z,39995.5
2019-01-17T13:34:01.779Z,38301.8
2019-01-17T13:35:01.097Z,36188.3
2019-01-17T13:36:01.099Z,34205.4
2019-01-17T13:37:01.100Z,32283.8
2019-01-17T13:38:01.271Z,30497.9
2019-01-17T13:39:01.100Z,28768.3
2019-01-17T13:40:01.108Z,27413.2
2019-01-17T13:41:06.105Z,26382.0
2019-01-17T13:42:01.098Z,25655.9
2019-01-17T13:43:01.247Z,25416.6
2019-01-17T13:44:01.106Z,25765.3
2019-01-17T13:45:01.102Z,26588.9
2019-01-17T13:46:01.126Z,27659.0
2019-01-17T13:47:01.103Z,28879.2
2019-01-17T13:48:01.242Z,29867.9
2019-01-17T13:49:01.101Z,30762.9
2019-01-17T13:50:01.100Z,32165.3
2019-01-17T13:51:06.126Z,34058.4
2019-01-17T13:52:01.099Z,36212.7
2019-01-17T13:53:01.256Z,38766.5
2019-01-17T13:54:01.103Z,40909.7
2019-01-17T13:55:02.128Z,42939.9
2019-01-17T13:56:06.121Z,44457.2
2019-01-17T13:57:07.293Z,45571.9
2019-01-17T13:58:01.250Z,46294.6
2019-01-17T14:00:01.100Z,46586.3
2019-01-17T14:01:01.088Z,46610.3
2019-01-17T14:02:01.113Z,46388.7
2019-01-17T14:03:01.097Z,45918.4
2019-01-17T14:04:01.244Z,45578.1
2019-01-17T14:05:01.095Z,45299.3
2019-01-17T14:06:01.099Z,44788.0
2019-01-17T14:07:06.105Z,44032.3
2019-01-17T14:08:01.091Z,43170.8
2019-01-17T14:09:01.263Z,41957.5
2019-01-17T14:10:01.097Z,41270.9
2019-01-17T14:11:01.095Z,40656.6
2019-01-17T14:12:06.104Z,40345.5
2019-01-17T14:13:01.534Z,40243.2
2019-01-17T14:14:01.305Z,40239.4
2019-01-17T14:15:01.098Z,39935.9
2019-01-17T14:16:01.096Z,39243.6
2019-01-17T14:17:01.272Z,38283.8
2019-01-17T14:18:01.094Z,37356.3
2019-01-17T14:19:01.235Z,36328.6
2019-01-17T14:20:01.096Z,35159.0
2019-01-17T14:21:01.099Z,33890.0
2019-01-17T14:22:06.105Z,32526.0
2019-01-17T14:23:01.095Z,31132.2
2019-01-17T14:24:01.246Z,29664.6
2019-01-17T14:25:01.099Z,27969.6
2019-01-17T14:26:01.097Z,26065.7
2019-01-17T14:27:06.108Z,24110.1
2019-01-17T14:28:01.097Z,22131.3
2019-01-17T14:29:01.307Z,20193.6
2019-01-17T14:30:01.353Z,18700.7
2019-01-17T14:31:01.096Z,17682.1
2019-01-17T14:32:01.132Z,16990.8
2019-01-17T14:33:01.100Z,16438.3
2019-01-17T14:34:01.244Z,15961.5
2019-01-17T14:35:01.103Z,15530.6
2019-01-17T14:36:01.099Z,15122.9
2019-01-17T14:37:01.143Z,14691.3
2019-01-17T14:38:01.097Z,14226.4
2019-01-17T14:39:01.249Z,13742.7
2019-01-17T14:40:01.095Z,13252.9
2019-01-17T14:41:01.096Z,12767.9
2019-01-17T14:42:06.161Z,12314.2
2019-01-17T14:43:01.159Z,12019.4
2019-01-17T14:44:01.435Z,11802.3
2019-01-17T14:45:01.781Z,11611.1
2019-01-17T14:46:01.107Z,11414.2
2019-01-17T14:47:06.106Z,11240.3
2019-01-17T14:48:01.100Z,11100.3
2019-01-17T14:49:01.244Z,10952.8
2019-01-17T14:50:01.451Z,10841.5
2019-01-17T14:51:01.106Z,10750.1
2019-01-17T14:52:01.129Z,10652.8
2019-01-17T14:53:01.163Z,10531.9
2019-01-17T14:54:01.376Z,10405.5
2019-01-17T14:55:01.098Z,10222.9
2019-01-17T14:56:01.102Z,9988.9
2019-01-17T14:57:01.235Z,9684.8
2019-01-17T14:58:01.167Z,9191.7
2019-01-17T14:59:01.246Z,8610.3
2019-01-17T15:01:01.150Z,7942.1
2019-01-17T15:02:01.090Z,7227.1
2019-01-17T15:03:01.206Z,6485.1
2019-01-17T15:04:01.091Z,5727.1
2019-01-17T15:05:01.360Z,4992.2
2019-01-17T15:06:01.085Z,4262.3
2019-01-17T15:07:01.058Z,3563.1
2019-01-17T15:08:06.104Z,2968.9
2019-01-17T15:09:01.088Z,2503.3
2019-01-17T15:10:01.332Z,2140.8
2019-01-17T15:11:02.405Z,1898.7
2019-01-17T15:12:01.100Z,1758.1
2019-01-17T15:13:01.128Z,1700.7
2019-01-17T15:14:01.094Z,1692.9
2019-01-17T15:15:01.484Z,1702.9
2019-01-17T15:16:01.095Z,1772.2
2019-01-17T15:17:01.096Z,1861.5
2019-01-17T15:18:01.131Z,1953.4
2019-01-17T15:19:01.096Z,2040.3
2019-01-17T15:20:01.244Z,2134.5
2019-01-17T15:21:01.098Z,2233.5
2019-01-17T15:22:01.095Z,2325.5
2019-01-17T15:23:01.125Z,2378.6
2019-01-17T15:24:01.101Z,2388.1
2019-01-17T15:25:02.177Z,2347.1
2019-01-17T15:26:01.094Z,2280.9
2019-01-17T15:27:01.096Z,2203.3
2019-01-17T15:28:01.130Z,2118.5
2019-01-17T15:29:01.096Z,2031.0
2019-01-17T15:30:01.285Z,1923.7
2019-01-17T15:31:01.098Z,1799.1
2019-01-17T15:32:01.100Z,1677.7
2019-01-17T15:33:01.128Z,1578.4
2019-01-17T15:34:01.101Z,1478.6
2019-01-17T15:35:01.310Z,1377.1
2019-01-17T15:36:01.100Z,1279.0
2019-01-17T15:37:01.097Z,1188.8
2019-01-17T15:38:06.112Z,1107.9
2019-01-17T15:39:01.102Z,1036.5
2019-01-17T15:40:01.248Z,974.1
2019-01-17T15:41:01.103Z,919.6
2019-01-17T15:42:01.101Z,871.1
2019-01-17T15:43:06.123Z,826.3
2019-01-17T15:45:01.238Z,780.1
2019-01-17T15:46:01.545Z,734.4
2019-01-17T15:47:01.084Z,688.1
2019-01-17T15:48:01.157Z,641.1
2019-01-17T15:49:01.085Z,593.9
2019-01-17T15:50:01.233Z,546.5
2019-01-17T15:51:01.087Z,498.9
2019-01-17T15:52:01.088Z,452.3
2019-01-17T15:53:01.090Z,407.4
2019-01-17T15:54:01.123Z,364.6
2019-01-17T15:55:01.237Z,324.2
2019-01-17T15:56:01.087Z,286.3
2019-01-17T15:57:01.088Z,250.9
2019-01-17T15:58:01.089Z,218.3
2019-01-17T15:59:01.113Z,188.2
2019-01-17T16:00:01.236Z,163.7
2019-01-17T16:01:01.087Z,141.2
2019-01-17T16:02:01.087Z,121.3
2019-01-17T16:03:01.090Z,103.6
2019-01-17T16:04:06.093Z,87.9
2019-01-17T16:05:01.253Z,74.1
2019-01-17T16:06:01.086Z,62.5
2019-01-17T16:07:01.091Z,52.3
2019-01-17T16:08:01.809Z,43.1
2019-01-17T16:09:06.100Z,34.9
2019-01-17T16:10:01.231Z,27.7
2019-01-17T16:11:01.091Z,21.7
2019-01-17T16:12:01.094Z,16.6
2019-01-17T16:13:01.093Z,12.4
2019-01-17T16:14:01.094Z,8.9
2019-01-17T16:15:01.333Z,6.3
2019-01-17T16:16:01.093Z,4.5
2019-01-17T16:17:01.093Z,3.5
2019-01-17T16:18:01.094Z,2.9
2019-01-17T16:19:01.099Z,2.5
2019-01-17T16:20:01.264Z,2.2
2019-01-17T16:21:01.099Z,1.9
2019-01-17T16:22:01.095Z,1.7
2019-01-17T16:23:01.098Z,1.5
2019-01-17T16:24:01.091Z,1.3
2019-01-17T16:26:01.132Z,1.2
2019-01-17T16:27:01.102Z,1.1
2019-01-17T16:28:01.112Z,0.9
2019-01-17T16:29:02.074Z,0.8
2019-01-17T16:30:01.235Z,0.7
2019-01-17T16:32:01.224Z,0.6
2019-01-17T16:33:01.092Z,0.5
2019-01-17T16:35:01.266Z,0.4
2019-01-17T16:36:01.096Z,0.3
2019-01-17T16:38:01.098Z,0.2
2019-01-17T16:39:01.098Z,0.1
2019-01-17T18:38:01.307Z,0.1
2019-01-17T18:40:01.107Z,0.2
2019-01-17T18:41:01.099Z,0.3
2019-01-17T18:43:01.249Z,0.4
2019-01-17T18:44:06.105Z,0.5
2019-01-17T18:45:01.104Z,0.5
2019-01-17T18:46:01.104Z,0.6
2019-01-17T18:54:01.231Z,0.5
2019-01-17T18:56:01.089Z,0.4
2019-01-17T18:57:01.092Z,0.3
2019-01-17T18:59:06.098Z,0.2
2019-01-17T19:00:01.260Z,0.1
2019-01-17T20:48:01.106Z,0.1
2019-01-17T20:53:01.382Z,0.2
2019-01-17T20:59:01.257Z,0.3
2019-01-17T21:00:06.125Z,0.3
2019-01-17T21:02:01.231Z,0.4
2019-01-17T21:04:01.253Z,0.3
2019-01-17T21:05:06.117Z,0.4
2019-01-17T21:06:01.100Z,0.5
2019-01-17T21:11:01.103Z,0.6
2019-01-17T21:12:01.102Z,0.7
2019-01-17T21:15:01.266Z,0.7
2019-01-17T21:19:01.085Z,0.6
2019-01-17T21:21:01.088Z,0.5
2019-01-17T21:25:01.235Z,0.6
2019-01-17T21:30:01.233Z,0.7
2019-01-17T21:34:01.152Z,0.8
2019-01-17T21:35:01.267Z,0.9
2019-01-17T21:37:01.088Z,1.0
2019-01-17T21:45:01.308Z,1.0
2019-01-17T22:00:01.520Z,1.0
2019-01-17T22:15:01.308Z,1.0
2019-01-17T22:30:01.381Z,1.0
2019-01-17T22:46:01.089Z,1.0
2019-01-17T23:00:02.947Z,1.0
2019-01-17T23:15:01.448Z,1.0
2019-01-17T23:20:01.244Z,0.9
2019-01-17T23:22:01.229Z,0.8
2019-01-17T23:23:01.097Z,0.7
2019-01-17T23:25:01.247Z,0.6
2019-01-17T23:26:01.144Z,0.5
2019-01-17T23:28:01.099Z,0.4
2019-01-17T23:29:06.107Z,0.3
2019-01-17T23:30:01.252Z,0.3
2019-01-17T23:31:01.100Z,0.2
2019-01-17T23:32:01.108Z,0.1
